createdAt,value
2022-08-19T00:01:28.804Z,21.83
2022-08-19T00:03:58.192Z,16.67
2022-08-19T00:06:25.929Z,17.30
2022-08-19T00:08:53.702Z,15.40
2022-08-19T00:11:26.361Z,18.17
2022-08-19T00:13:57.466Z,15.30
2022-08-19T00:16:27.217Z,23.27
2022-08-19T00:18:56.270Z,16.43
2022-08-19T00:21:24.490Z,18.03
2022-08-19T00:23:52.250Z,17.77
2022-08-19T00:26:20.135Z,15.00
2022-08-19T00:28:49.149Z,19.70
2022-08-19T00:31:17.238Z,18.30
2022-08-19T00:33:45.339Z,19.77
2022-08-19T00:36:13.546Z,20.17
2022-08-19T00:38:44.210Z,17.67
2022-08-19T00:41:15.489Z,18.70
2022-08-19T00:43:43.469Z,16.67
2022-08-19T00:46:12.457Z,18.93
2022-08-19T00:48:40.141Z,21.53
2022-08-19T00:51:08.088Z,22.00
2022-08-19T00:53:36.459Z,21.47
2022-08-19T00:56:07.194Z,19.27
2022-08-19T00:58:37.037Z,18.70
2022-08-19T01:01:06.356Z,17.70
2022-08-19T01:03:56.476Z,18.83
2022-08-19T01:06:23.283Z,21.43
2022-08-19T01:08:50.942Z,17.97
2022-08-19T01:11:18.833Z,21.20
2022-08-19T01:13:49.838Z,19.30
2022-08-19T01:16:21.170Z,16.40
2022-08-19T01:18:50.217Z,17.10
2022-08-19T01:21:23.956Z,19.50
2022-08-19T01:23:53.155Z,17.17
2022-08-19T01:26:23.686Z,17.53
2022-08-19T01:28:54.312Z,16.70
2022-08-19T01:31:32.704Z,18.97
2022-08-19T01:34:02.486Z,17.70
2022-08-19T01:36:32.577Z,18.37
2022-08-19T01:39:04.783Z,19.43
2022-08-19T01:41:32.816Z,17.50
2022-08-19T01:44:03.828Z,16.10
2022-08-19T01:46:46.147Z,16.27
2022-08-19T01:49:14.315Z,17.20
2022-08-19T01:51:41.975Z,18.20
2022-08-19T01:54:12.332Z,18.60
2022-08-19T01:56:40.188Z,15.20
2022-08-19T01:59:12.846Z,15.17
2022-08-19T02:01:40.716Z,18.90
2022-08-19T02:04:08.547Z,17.03
2022-08-19T02:06:36.940Z,15.70
2022-08-19T02:09:05.725Z,15.47
2022-08-19T02:11:37.078Z,16.97
2022-08-19T02:14:07.622Z,15.80
2022-08-19T02:16:36.008Z,15.10
2022-08-19T02:19:04.444Z,15.80
2022-08-19T02:21:32.706Z,20.07
2022-08-19T02:24:00.468Z,17.57
2022-08-19T02:26:28.397Z,19.80
2022-08-19T02:28:58.057Z,13.57
2022-08-19T02:31:28.780Z,16.70
2022-08-19T02:33:57.000Z,15.97
2022-08-19T02:36:26.130Z,15.20
2022-08-19T02:38:54.704Z,14.00
2022-08-19T02:41:27.037Z,15.30
2022-08-19T02:44:22.884Z,15.73
2022-08-19T02:46:45.800Z,18.73
2022-08-19T02:49:13.874Z,15.00
2022-08-19T02:51:43.674Z,14.47
2022-08-19T02:54:13.438Z,13.47
2022-08-19T02:56:43.232Z,15.93
2022-08-19T02:59:12.582Z,13.53
2022-08-19T03:01:42.787Z,14.87
2022-08-19T03:04:14.272Z,14.00
2022-08-19T03:06:44.081Z,13.03
2022-08-19T03:09:12.520Z,13.30
2022-08-19T03:11:40.692Z,11.87
2022-08-19T03:14:09.835Z,14.17
2022-08-19T03:16:46.388Z,17.43
2022-08-19T03:19:16.047Z,17.83
2022-08-19T03:21:45.819Z,16.53
2022-08-19T03:24:15.189Z,15.23
2022-08-19T03:26:44.297Z,15.10
2022-08-19T03:29:13.274Z,12.90
2022-08-19T03:31:51.257Z,11.37
2022-08-19T03:34:27.003Z,19.10
2022-08-19T03:36:55.334Z,15.57
2022-08-19T03:39:24.850Z,15.10
2022-08-19T03:42:31.931Z,13.53
2022-08-19T03:44:46.633Z,16.57
2022-08-19T03:47:17.241Z,11.33
2022-08-19T03:49:47.275Z,13.37
2022-08-19T03:52:15.118Z,11.73
2022-08-19T03:54:43.243Z,15.07
2022-08-19T03:57:11.291Z,12.77
2022-08-19T03:59:39.883Z,17.30
2022-08-19T04:02:11.125Z,15.87
2022-08-19T04:04:39.728Z,20.83
2022-08-19T04:07:09.272Z,13.03
2022-08-19T04:09:38.193Z,16.77
2022-08-19T04:12:07.542Z,12.07
2022-08-19T04:14:36.560Z,17.83
2022-08-19T04:17:06.378Z,15.33
2022-08-19T04:19:35.141Z,14.97
2022-08-19T04:22:02.865Z,14.03
2022-08-19T04:24:32.967Z,13.40
2022-08-19T04:27:01.686Z,14.13
2022-08-19T04:29:30.995Z,16.00
2022-08-19T04:31:59.644Z,14.00
2022-08-19T04:34:30.569Z,13.97
2022-08-19T04:37:00.507Z,16.47
2022-08-19T04:39:49.255Z,19.73
2022-08-19T04:42:35.118Z,11.40
2022-08-19T04:45:04.195Z,15.77
2022-08-19T04:47:49.400Z,13.93
2022-08-19T04:50:21.515Z,15.03
2022-08-19T04:52:52.082Z,12.53
2022-08-19T04:55:21.371Z,15.60
2022-08-19T04:57:49.841Z,13.80
2022-08-19T05:00:17.697Z,15.43
2022-08-19T05:02:45.255Z,16.67
2022-08-19T05:05:13.460Z,13.10
2022-08-19T05:07:42.026Z,12.23
2022-08-19T05:10:10.321Z,14.20
2022-08-19T05:12:39.271Z,20.07
2022-08-19T05:15:09.321Z,10.93
2022-08-19T05:17:38.904Z,13.77
2022-08-19T05:20:27.395Z,13.67
2022-08-19T05:22:55.320Z,17.33
2022-08-19T05:25:25.570Z,18.30
2022-08-19T05:27:54.637Z,10.97
2022-08-19T05:30:24.430Z,11.20
2022-08-19T05:33:13.052Z,16.63
2022-08-19T05:35:42.020Z,16.00
2022-08-19T05:38:12.087Z,13.23
2022-08-19T05:40:40.280Z,11.77
2022-08-19T05:43:10.228Z,13.90
2022-08-19T05:45:41.298Z,12.17
2022-08-19T05:48:11.948Z,11.47
2022-08-19T05:50:40.832Z,12.23
2022-08-19T05:53:09.823Z,11.10
2022-08-19T05:55:39.176Z,13.73
2022-08-19T05:58:08.420Z,12.33
2022-08-19T06:00:38.821Z,11.50
2022-08-19T06:03:12.446Z,10.63
2022-08-19T06:05:42.278Z,11.83
2022-08-19T06:08:19.330Z,8.77
2022-08-19T06:10:47.465Z,11.73
2022-08-19T06:13:15.123Z,9.57
2022-08-19T06:15:45.200Z,16.33
2022-08-19T06:18:12.916Z,15.33
2022-08-19T06:20:55.423Z,8.30
2022-08-19T06:23:24.289Z,10.20
2022-08-19T06:25:52.159Z,9.50
2022-08-19T06:28:19.996Z,8.97
2022-08-19T06:30:49.211Z,8.27
2022-08-19T06:33:16.866Z,10.90
2022-08-19T06:35:46.385Z,13.77
2022-08-19T06:38:17.067Z,10.53
2022-08-19T06:43:12.317Z,9.27
2022-08-19T06:45:41.925Z,8.40
2022-08-19T06:48:11.615Z,8.70
2022-08-19T06:50:41.020Z,8.40
2022-08-19T06:53:08.903Z,12.73
2022-08-19T06:55:36.611Z,11.37
2022-08-19T06:58:05.060Z,8.20
2022-08-19T07:00:34.946Z,6.73
2022-08-19T07:03:06.398Z,6.90
2022-08-19T07:05:45.941Z,10.03
2022-08-19T07:08:14.367Z,7.03
2022-08-19T07:10:45.798Z,7.30
2022-08-19T07:13:13.519Z,9.40
2022-08-19T07:15:42.232Z,9.23
2022-08-19T07:18:11.972Z,7.00
2022-08-19T07:20:42.629Z,7.23
2022-08-19T07:23:15.928Z,6.80
2022-08-19T07:25:44.822Z,9.27
2022-08-19T07:28:24.787Z,8.40
2022-08-19T07:30:53.207Z,6.20
2022-08-19T07:33:21.188Z,8.70
2022-08-19T07:35:50.861Z,7.03
2022-08-19T07:38:18.952Z,6.87
2022-08-19T07:40:47.685Z,12.13
2022-08-19T07:43:17.347Z,5.37
2022-08-19T07:45:46.133Z,5.93
2022-08-19T07:48:13.904Z,9.93
2022-08-19T07:50:41.661Z,5.13
2022-08-19T07:53:10.795Z,6.30
2022-08-19T07:55:42.262Z,5.03
2022-08-19T07:58:12.124Z,5.47
2022-08-19T08:00:39.884Z,5.80
2022-08-19T08:03:07.715Z,4.60
2022-08-19T08:05:53.158Z,7.43
2022-08-19T08:08:44.216Z,6.53
2022-08-19T08:11:20.057Z,5.00
2022-08-19T08:14:01.309Z,3.40
2022-08-19T08:16:33.284Z,3.83
2022-08-19T08:19:02.823Z,3.57
2022-08-19T08:21:35.695Z,8.70
2022-08-19T08:24:05.530Z,5.07
2022-08-19T08:26:33.664Z,4.33
2022-08-19T08:29:02.398Z,4.53
2022-08-19T08:31:40.719Z,4.17
2022-08-19T08:34:09.479Z,5.47
2022-08-19T08:36:41.703Z,4.10
2022-08-19T08:39:11.373Z,3.93
2022-08-19T08:41:47.332Z,3.60
2022-08-19T08:44:21.884Z,5.30
2022-08-19T08:46:53.197Z,4.13
2022-08-19T08:49:30.354Z,3.90
2022-08-19T08:52:04.065Z,5.60
2022-08-19T08:54:39.184Z,4.17
2022-08-19T08:57:12.728Z,5.83
2022-08-19T08:59:43.632Z,5.17
2022-08-19T09:02:11.501Z,6.77
2022-08-19T09:04:40.248Z,6.00
2022-08-19T09:07:36.032Z,5.80
2022-08-19T09:10:15.944Z,3.97
2022-08-19T09:12:54.895Z,4.53
2022-08-19T09:15:33.714Z,4.00
2022-08-19T09:18:07.077Z,4.10
2022-08-19T09:20:35.067Z,3.90
2022-08-19T09:23:02.922Z,5.50
2022-08-19T09:25:35.296Z,4.53
2022-08-19T09:28:05.638Z,4.00
2022-08-19T09:30:43.520Z,7.50
2022-08-19T09:33:11.406Z,4.70
2022-08-19T09:35:49.807Z,5.27
2022-08-19T09:38:21.467Z,7.43
2022-08-19T09:40:51.070Z,5.10
2022-08-19T09:43:32.980Z,5.90
2022-08-19T09:46:02.717Z,6.20
2022-08-19T09:48:30.809Z,5.97
2022-08-19T09:51:06.157Z,6.40
2022-08-19T09:53:34.177Z,8.50
2022-08-19T09:56:04.050Z,5.73
2022-08-19T09:58:32.139Z,7.80
2022-08-19T10:01:02.411Z,5.87
2022-08-19T10:03:32.179Z,5.50
2022-08-19T10:06:02.231Z,7.37
2022-08-19T10:08:33.944Z,5.87
2022-08-19T10:11:27.895Z,7.73
2022-08-19T10:13:52.415Z,5.70
2022-08-19T10:16:26.130Z,6.60
2022-08-19T10:18:58.830Z,12.90
2022-08-19T10:21:29.109Z,10.40
2022-08-19T10:24:04.801Z,6.03
2022-08-19T10:26:38.087Z,6.80
2022-08-19T10:29:09.261Z,6.40
2022-08-19T10:32:01.216Z,6.53
2022-08-19T10:34:28.186Z,10.23
2022-08-19T10:37:00.498Z,6.13
2022-08-19T10:39:32.677Z,8.43
2022-08-19T10:42:13.881Z,6.80
2022-08-19T10:44:42.515Z,6.40
2022-08-19T10:47:17.546Z,6.80
2022-08-19T10:50:11.951Z,6.63
2022-08-19T10:52:40.275Z,7.17
2022-08-19T10:55:36.904Z,9.13
2022-08-19T10:58:06.209Z,6.93
2022-08-19T11:00:34.606Z,7.70
2022-08-19T11:03:02.365Z,11.23
2022-08-19T11:05:30.336Z,7.33
2022-08-19T11:08:23.866Z,7.93
2022-08-19T11:10:54.514Z,8.97
2022-08-19T11:13:24.304Z,7.73
2022-08-19T11:16:00.890Z,8.80
2022-08-19T11:18:31.577Z,12.13
2022-08-19T11:21:07.970Z,11.70
2022-08-19T11:23:35.816Z,7.10
2022-08-19T11:26:03.662Z,7.13
2022-08-19T11:28:32.665Z,8.13
2022-08-19T11:31:00.516Z,12.40
2022-08-19T11:33:28.414Z,13.17
2022-08-19T11:35:56.342Z,11.67
2022-08-19T11:38:24.008Z,10.83
2022-08-19T11:40:57.349Z,8.53
2022-08-19T11:43:25.173Z,15.30
2022-08-19T11:45:54.363Z,9.30
2022-08-19T11:48:23.378Z,9.13
2022-08-19T11:50:51.196Z,9.97
2022-08-19T11:53:20.253Z,8.27
2022-08-19T11:55:49.075Z,9.40
2022-08-19T11:58:19.334Z,8.90
2022-08-19T12:00:47.426Z,9.90
2022-08-19T12:03:16.633Z,8.03
2022-08-19T12:05:44.328Z,10.37
2022-08-19T12:08:13.555Z,14.80
2022-08-19T12:10:43.080Z,9.20
2022-08-19T12:13:11.305Z,9.80
2022-08-19T12:15:41.329Z,9.50
2022-08-19T12:18:10.287Z,7.63
2022-08-19T12:20:41.777Z,8.67
2022-08-19T12:23:11.170Z,11.70
2022-08-19T12:25:39.409Z,8.83
2022-08-19T12:28:07.016Z,8.10
2022-08-19T12:30:34.637Z,11.83
2022-08-19T12:33:02.274Z,8.83
2022-08-19T12:35:31.440Z,9.80
2022-08-19T12:38:00.913Z,10.17
2022-08-19T12:40:28.947Z,8.60
2022-08-19T12:42:56.653Z,10.33
2022-08-19T12:45:24.499Z,8.20
2022-08-19T12:47:54.783Z,8.93
2022-08-19T12:50:23.364Z,8.30
2022-08-19T12:52:51.175Z,9.20
2022-08-19T12:55:20.461Z,8.77
2022-08-19T12:57:49.621Z,8.10
2022-08-19T13:00:21.972Z,8.40
2022-08-19T13:02:52.249Z,8.03
2022-08-19T13:05:24.141Z,9.33
2022-08-19T13:07:54.178Z,8.63
2022-08-19T13:10:25.636Z,13.13
2022-08-19T13:12:54.074Z,8.53
2022-08-19T13:15:24.537Z,10.07
2022-08-19T13:17:54.742Z,7.50
2022-08-19T13:20:23.532Z,7.50
2022-08-19T13:22:51.725Z,7.43
2022-08-19T13:25:20.866Z,7.43
2022-08-19T13:27:51.688Z,7.17
2022-08-19T13:30:39.187Z,8.20
2022-08-19T13:33:15.918Z,5.93
2022-08-19T13:35:46.609Z,6.70
2022-08-19T13:38:15.535Z,10.00
2022-08-19T13:40:43.383Z,7.03
2022-08-19T13:43:17.602Z,5.43
2022-08-19T13:45:55.024Z,7.43
2022-08-19T13:48:23.409Z,7.93
2022-08-19T13:50:51.248Z,5.50
2022-08-19T13:53:19.675Z,5.87
2022-08-19T13:55:47.564Z,10.23
2022-08-19T13:58:16.861Z,5.57
2022-08-19T14:00:47.957Z,6.63
2022-08-19T14:03:16.382Z,5.00
2022-08-19T14:05:44.183Z,5.67
2022-08-19T14:08:13.192Z,5.83
2022-08-19T14:10:43.631Z,5.63
2022-08-19T14:13:11.228Z,5.20
2022-08-19T14:15:40.645Z,5.10
2022-08-19T14:18:08.443Z,5.50
2022-08-19T14:20:36.555Z,5.57
2022-08-19T14:23:06.033Z,5.57
2022-08-19T14:25:35.619Z,5.10
2022-08-19T14:28:03.869Z,5.50
2022-08-19T14:30:34.153Z,6.10
2022-08-19T14:33:04.475Z,6.13
2022-08-19T14:35:35.544Z,4.33
2022-08-19T14:38:04.504Z,4.57
2022-08-19T14:40:32.787Z,4.60
2022-08-19T14:43:05.729Z,4.87
2022-08-19T14:45:36.530Z,4.30
2022-08-19T14:48:06.209Z,4.33
2022-08-19T14:50:34.485Z,4.57
2022-08-19T14:53:09.119Z,4.40
2022-08-19T14:55:43.767Z,5.97
2022-08-19T14:58:29.282Z,4.93
2022-08-19T15:01:00.377Z,7.80
2022-08-19T15:03:30.752Z,4.30
2022-08-19T15:05:58.931Z,4.10
2022-08-19T15:08:27.881Z,4.63
2022-08-19T15:10:55.762Z,4.40
2022-08-19T15:13:23.760Z,4.50
2022-08-19T15:15:52.552Z,5.67
2022-08-19T15:18:21.359Z,4.80
2022-08-19T15:20:50.833Z,4.70
2022-08-19T15:23:21.263Z,4.23
2022-08-19T15:25:49.210Z,3.93
2022-08-19T15:28:17.369Z,3.70
2022-08-19T15:30:45.363Z,5.97
2022-08-19T15:33:15.098Z,5.53
2022-08-19T15:35:43.108Z,3.77
2022-08-19T15:38:13.811Z,3.90
2022-08-19T15:40:42.497Z,3.80
2022-08-19T15:43:10.204Z,3.70
2022-08-19T15:45:40.187Z,4.20
2022-08-19T15:48:07.884Z,6.27
2022-08-19T15:50:35.778Z,6.20
2022-08-19T15:53:07.145Z,5.67
2022-08-19T15:55:38.884Z,8.63
2022-08-19T15:58:28.817Z,5.80
2022-08-19T16:01:15.967Z,4.90
2022-08-19T16:04:01.649Z,4.17
2022-08-19T16:06:31.333Z,4.60
2022-08-19T16:09:01.827Z,3.70
2022-08-19T16:11:38.960Z,3.70
2022-08-19T16:14:09.160Z,4.00
2022-08-19T16:16:38.576Z,3.53
2022-08-19T16:19:10.323Z,3.60
2022-08-19T16:21:41.584Z,4.67
2022-08-19T16:24:12.054Z,6.00
2022-08-19T16:26:42.807Z,3.63
2022-08-19T16:29:12.243Z,8.47
2022-08-19T16:31:43.324Z,3.97
2022-08-19T16:34:12.063Z,6.70
2022-08-19T16:36:41.672Z,16.43
2022-08-19T16:39:11.371Z,4.00
2022-08-19T16:41:43.813Z,4.20
2022-08-19T16:44:14.315Z,6.87
2022-08-19T16:46:42.545Z,3.80
2022-08-19T16:49:11.991Z,4.03
2022-08-19T16:51:40.175Z,5.10
2022-08-19T16:54:08.441Z,6.00
2022-08-19T16:56:36.775Z,4.80
2022-08-19T16:59:06.602Z,7.50
2022-08-19T17:01:34.329Z,4.17
2022-08-19T17:04:02.031Z,4.30
2022-08-19T17:06:32.045Z,4.60
2022-08-19T17:09:01.954Z,4.77
2022-08-19T17:11:33.034Z,5.17
2022-08-19T17:14:01.753Z,4.90
2022-08-19T17:16:34.147Z,5.80
2022-08-19T17:19:04.917Z,5.00
2022-08-19T17:21:34.355Z,5.13
2022-08-19T17:24:04.468Z,4.63
2022-08-19T17:26:32.438Z,4.80
2022-08-19T17:29:01.365Z,5.50
2022-08-19T17:31:32.328Z,4.50
2022-08-19T17:34:00.954Z,5.13
2022-08-19T17:36:34.469Z,4.80
2022-08-19T17:39:04.108Z,6.07
2022-08-19T17:41:34.044Z,4.80
2022-08-19T17:44:04.384Z,5.70
2022-08-19T17:46:34.036Z,6.07
2022-08-19T17:49:01.839Z,5.33
2022-08-19T17:51:41.955Z,4.93
2022-08-19T17:54:11.940Z,5.03
2022-08-19T17:56:39.694Z,5.47
2022-08-19T17:59:11.821Z,6.30
2022-08-19T18:01:53.827Z,5.00
2022-08-19T18:04:24.557Z,8.93
2022-08-19T18:06:54.423Z,6.40
2022-08-19T18:09:25.613Z,6.17
2022-08-19T18:11:55.391Z,6.97
2022-08-19T18:14:32.146Z,5.63
2022-08-19T18:17:06.055Z,6.23
2022-08-19T18:19:41.314Z,7.87
2022-08-19T18:22:11.686Z,5.47
2022-08-19T18:24:41.234Z,11.80
2022-08-19T18:27:11.311Z,11.00
2022-08-19T18:29:40.145Z,6.60
2022-08-19T18:32:13.164Z,6.40
2022-08-19T18:34:41.836Z,11.33
2022-08-19T18:37:09.762Z,6.47
2022-08-19T18:39:55.612Z,6.73
2022-08-19T18:42:41.338Z,7.17
2022-08-19T18:45:27.680Z,5.80
2022-08-19T18:48:18.486Z,6.43
2022-08-19T18:50:54.928Z,6.20
2022-08-19T18:53:23.254Z,6.17
2022-08-19T18:55:53.884Z,6.90
2022-08-19T18:58:26.095Z,13.63
2022-08-19T19:00:56.732Z,9.10
2022-08-19T19:03:26.640Z,8.80
2022-08-19T19:05:54.636Z,8.77
2022-08-19T19:08:26.875Z,6.53
2022-08-19T19:10:56.684Z,6.60
2022-08-19T19:13:24.408Z,6.53
2022-08-19T19:15:52.119Z,6.70
2022-08-19T19:18:20.458Z,7.07
2022-08-19T19:20:49.552Z,8.60
2022-08-19T19:23:18.228Z,7.43
2022-08-19T19:25:50.932Z,6.43
2022-08-19T19:28:25.318Z,8.87
2022-08-19T19:30:54.145Z,6.77
2022-08-19T19:33:21.814Z,6.63
2022-08-19T19:35:50.891Z,7.27
2022-08-19T19:38:18.580Z,6.33
2022-08-19T19:40:46.497Z,12.37
2022-08-19T19:43:18.349Z,10.10
2022-08-19T19:45:47.545Z,9.40
2022-08-19T19:48:15.547Z,8.83
2022-08-19T19:50:43.990Z,7.17
2022-08-19T19:53:15.040Z,6.63
2022-08-19T19:55:43.494Z,7.47
2022-08-19T19:58:11.251Z,10.67
2022-08-19T20:00:39.342Z,7.17
2022-08-19T20:03:07.221Z,7.13
2022-08-19T20:05:34.904Z,9.40
2022-08-19T20:08:20.008Z,13.00
2022-08-19T20:10:49.052Z,8.57
2022-08-19T20:13:16.706Z,9.53
2022-08-19T20:15:44.575Z,8.10
2022-08-19T20:18:14.304Z,7.67
2022-08-19T20:20:42.977Z,7.60
2022-08-19T20:23:10.729Z,8.03
2022-08-19T20:25:39.857Z,6.77
2022-08-19T20:28:09.179Z,8.50
2022-08-19T20:30:37.787Z,10.83
2022-08-19T20:33:10.491Z,14.03
2022-08-19T20:35:39.019Z,6.93
2022-08-19T20:38:08.670Z,8.53
2022-08-19T20:40:37.772Z,11.40
2022-08-19T20:43:10.186Z,8.60
2022-08-19T20:45:38.004Z,7.70
2022-08-19T20:48:07.839Z,7.40
2022-08-19T20:50:37.646Z,10.60
2022-08-19T20:53:10.978Z,7.90
2022-08-19T20:55:38.585Z,8.37
2022-08-19T20:58:06.406Z,10.57
2022-08-19T21:00:35.439Z,7.83
2022-08-19T21:03:03.594Z,8.93
2022-08-19T21:05:31.148Z,9.80
2022-08-19T21:07:59.164Z,8.07
2022-08-19T21:10:27.506Z,8.00
2022-08-19T21:12:55.344Z,9.03
2022-08-19T21:15:24.549Z,11.97
2022-08-19T21:17:53.615Z,8.57
2022-08-19T21:20:21.642Z,7.70
2022-08-19T21:22:49.308Z,6.80
2022-08-19T21:25:17.555Z,6.73
2022-08-19T21:27:45.131Z,9.23
2022-08-19T21:30:14.425Z,13.53
2022-08-19T21:32:42.004Z,10.33
2022-08-19T21:35:11.113Z,7.27
2022-08-19T21:37:38.997Z,7.03
2022-08-19T21:40:08.224Z,7.97
2022-08-19T21:42:37.681Z,6.27
2022-08-19T21:45:06.360Z,7.30
2022-08-19T21:47:34.009Z,8.90
2022-08-19T21:50:01.717Z,8.30
2022-08-19T21:52:30.973Z,6.07
2022-08-19T21:54:58.995Z,7.73
2022-08-19T21:57:28.427Z,12.50
2022-08-19T21:59:56.160Z,5.40
2022-08-19T22:02:23.869Z,5.20
2022-08-19T22:04:52.969Z,9.00
2022-08-19T22:07:21.851Z,11.20
2022-08-19T22:09:52.620Z,4.77
2022-08-19T22:12:23.327Z,4.97
2022-08-19T22:14:52.015Z,4.87
2022-08-19T22:17:20.337Z,9.00
2022-08-19T22:19:48.173Z,6.00
2022-08-19T22:22:21.599Z,9.33
2022-08-19T22:24:50.966Z,6.30
2022-08-19T22:27:19.326Z,4.67
2022-08-19T22:29:47.302Z,4.83
2022-08-19T22:32:28.225Z,6.53
2022-08-19T22:34:59.637Z,6.00
2022-08-19T22:37:28.852Z,4.37
2022-08-19T22:39:58.053Z,5.47
2022-08-19T22:42:31.876Z,4.83
2022-08-19T22:45:01.619Z,10.80
2022-08-19T22:47:32.265Z,7.00
2022-08-19T22:50:08.318Z,4.30
2022-08-19T22:52:47.894Z,4.70
2022-08-19T22:55:23.591Z,4.57
2022-08-19T22:57:51.176Z,6.80
2022-08-19T23:00:19.737Z,5.40
2022-08-19T23:02:52.380Z,5.10
2022-08-19T23:05:22.863Z,5.50
2022-08-19T23:07:52.186Z,4.50
2022-08-19T23:10:27.572Z,8.70
2022-08-19T23:12:58.127Z,5.33
2022-08-19T23:15:28.862Z,6.50
2022-08-19T23:17:58.607Z,6.17
2022-08-19T23:20:28.481Z,4.30
2022-08-19T23:22:57.264Z,6.17
2022-08-19T23:25:30.276Z,5.17
2022-08-19T23:28:26.887Z,4.23
2022-08-19T23:30:55.219Z,7.30
2022-08-19T23:33:26.494Z,6.23
2022-08-19T23:36:18.477Z,4.20
2022-08-19T23:38:48.764Z,6.53
2022-08-19T23:41:20.230Z,11.50
2022-08-19T23:43:48.119Z,10.80
2022-08-19T23:46:27.536Z,5.20
2022-08-19T23:48:56.335Z,4.83
2022-08-19T23:51:26.611Z,6.33
2022-08-19T23:53:54.573Z,3.60
2022-08-19T23:56:23.689Z,16.13
2022-08-19T23:58:51.461Z,5.63
